Time;durP1;ratioP1;P1;durP2;ratioP2;P2;SDS_P1;SDS_P2;PMS_P1;PMS_P2;Temp;Humidity;BMP_temperature;BMP_pressure;BME280_temperature;BME280_humidity;BME280_pressure;Samples;Min_cycle;Max_cycle;Signal;HPM_P1;HPM_P2
2022/03/04 00:00:26;;;;;;;20.30;11.90;;;0.00;70.50;;;-1.53;59.38;97382.91;4933714;29;20407;-80
2022/03/04 00:02:53;;;;;;;21.55;11.77;;;-0.10;70.40;;;-1.44;58.98;97390.47;4933474;29;20400;-80
2022/03/04 00:05:19;;;;;;;19.25;11.30;;;0.00;70.20;;;-1.54;59.61;97389.88;4935515;29;20411;-80
2022/03/04 00:07:47;;;;;;;23.88;12.70;;;-0.10;70.40;;;-1.47;59.38;97387.41;4934007;29;20902;-80
2022/03/04 00:10:13;;;;;;;21.53;12.17;;;-0.10;70.70;;;-1.58;59.63;97386.03;4935596;29;20512;-80
2022/03/04 00:12:38;;;;;;;22.50;12.88;;;-0.10;70.60;;;-1.45;59.72;97388.03;4935200;29;20420;-80
2022/03/04 00:15:06;;;;;;;22.75;12.77;;;-0.10;71.00;;;-1.54;59.84;97392.47;4935326;29;20435;-80
2022/03/04 00:17:32;;;;;;;22.25;12.05;;;-0.10;71.10;;;-1.56;59.68;97387.47;4935127;29;20446;-81
2022/03/04 00:19:59;;;;;;;23.00;12.50;;;-0.10;71.20;;;-1.51;59.37;97384.34;4935445;29;20458;-81
2022/03/04 00:22:24;;;;;;;23.10;12.43;;;-0.10;71.00;;;-1.57;59.56;97378.06;4934913;29;20410;-80
2022/03/04 00:24:52;;;;;;;23.05;13.07;;;-0.10;70.90;;;-1.54;59.88;97381.28;4935398;29;20404;-80
2022/03/04 00:27:18;;;;;;;24.17;12.88;;;-0.20;71.10;;;-1.63;60.02;97383.16;4935143;29;20419;-80
2022/03/04 00:29:44;;;;;;;23.98;11.65;;;-0.20;71.10;;;-1.69;60.02;97386.44;4948970;28;20415;-80
2022/03/04 00:32:09;;;;;;;25.80;13.38;;;-0.20;71.10;;;-1.58;59.93;97389.41;4934716;29;20422;-80
2022/03/04 00:34:36;;;;;;;22.33;13.03;;;-0.20;71.40;;;-1.69;59.94;97383.84;4935091;29;20419;-79
2022/03/04 00:37:02;;;;;;;23.25;13.23;;;-0.30;71.40;;;-1.73;60.52;97392.97;4934841;29;20446;-80
2022/03/04 00:39:28;;;;;;;23.10;12.82;;;-0.30;71.70;;;-1.78;60.50;97390.06;4935099;29;20419;-80
2022/03/04 00:41:55;;;;;;;22.85;12.65;;;-0.30;71.80;;;-1.77;60.53;97389.91;4934980;29;20415;-80
2022/03/04 00:44:21;;;;;;;22.80;13.30;;;-0.30;72.30;;;-1.77;60.86;97402.88;4935044;29;20411;-80
2022/03/04 00:46:47;;;;;;;19.83;11.60;;;-0.40;72.30;;;-1.97;60.82;97393.94;4934954;29;20443;-80
2022/03/04 00:49:13;;;;;;;23.48;12.65;;;-0.40;72.10;;;-1.93;60.90;97394.38;4934989;29;20407;-80
2022/03/04 00:51:39;;;;;;;21.02;11.52;;;-0.40;72.60;;;-2.09;60.97;97397.88;4949274;28;20432;-80
2022/03/04 00:54:05;;;;;;;24.90;13.80;;;-0.60;72.20;;;-2.07;61.33;97393.34;4934744;29;20408;-79
2022/03/04 00:56:31;;;;;;;23.40;12.40;;;-0.60;72.70;;;-2.12;61.53;97395.66;4934717;29;20414;-80
2022/03/04 00:58:58;;;;;;;26.27;14.88;;;-0.60;72.90;;;-2.05;62.11;97401.75;4935089;29;20412;-79
2022/03/04 01:01:24;;;;;;;22.88;13.43;;;-0.60;73.80;;;-2.06;61.61;97393.19;4934745;29;20411;-79
2022/03/04 01:03:50;;;;;;;23.65;13.68;;;-0.60;73.70;;;-2.10;61.96;97394.47;4934451;29;20446;-80
2022/03/04 01:06:16;;;;;;;21.57;11.93;;;-0.60;73.90;;;-2.17;62.33;97390.97;4934508;29;20506;-80
2022/03/04 01:08:42;;;;;;;22.90;13.15;;;-0.70;73.80;;;-2.13;62.01;97394.84;4933659;29;20427;-81
2022/03/04 01:11:08;;;;;;;20.65;12.23;;;-0.70;73.80;;;-2.28;62.19;97395.72;4934594;29;20422;-79
2022/03/04 01:13:34;;;;;;;21.65;12.77;;;-0.70;73.70;;;-2.29;62.37;97389.75;4934316;29;20439;-80
2022/03/04 01:16:01;;;;;;;23.45;13.95;;;-0.80;73.80;;;-2.21;62.67;97386.28;4934329;29;20419;-80
2022/03/04 01:18:28;;;;;;;25.30;13.50;;;-0.70;74.90;;;-2.25;62.74;97393.59;4934753;29;20411;-80
2022/03/04 01:20:53;;;;;;;25.08;14.00;;;-0.70;74.40;;;-2.22;62.75;97395.84;4934820;29;20556;-79
2022/03/04 01:23:19;;;;;;;27.42;14.50;;;-0.70;74.90;;;-2.23;63.10;97396.84;4934385;29;20909;-79
2022/03/04 01:25:46;;;;;;;24.33;13.07;;;-0.80;74.80;;;-2.30;63.08;97395.09;4934692;29;20442;-80
2022/03/04 01:28:12;;;;;;;21.50;12.88;;;-0.80;74.80;;;-2.40;63.05;97383.13;4934382;29;20407;-79
2022/03/04 01:30:38;;;;;;;23.92;14.05;;;-0.90;74.70;;;-2.37;62.99;97392.38;4934550;29;20498;-79
2022/03/04 01:33:05;;;;;;;21.58;12.32;;;-0.80;75.20;;;-2.53;63.29;97377.69;4935749;29;20506;-78
2022/03/04 01:35:31;;;;;;;24.85;14.00;;;-1.00;74.80;;;-2.38;63.56;97383.78;4938316;29;20419;-80
2022/03/04 01:37:57;;;;;;;21.90;13.15;;;-0.90;75.50;;;-2.47;63.36;97387.38;4934897;29;20893;-79
2022/03/04 01:40:23;;;;;;;20.93;12.90;;;-0.90;75.40;;;-2.49;63.38;97379.00;4943041;29;20498;-80
2022/03/04 01:42:49;;;;;;;25.15;14.30;;;-0.90;75.50;;;-2.49;63.77;97385.97;4940071;29;20427;-80
2022/03/04 01:45:15;;;;;;;21.52;12.32;;;-1.00;75.80;;;-2.59;63.75;97374.97;4933955;29;20856;-80
2022/03/04 01:47:42;;;;;;;21.15;12.05;;;-1.00;75.70;;;-2.66;63.79;97377.44;4933426;29;20407;-80
2022/03/04 01:50:10;;;;;;;24.60;14.73;;;-1.10;75.90;;;-2.50;63.90;97379.16;4933933;29;20936;-80
2022/03/04 01:52:36;;;;;;;23.23;13.25;;;-1.00;76.30;;;-2.57;64.01;97371.25;4948014;28;20414;-80
2022/03/04 01:55:03;;;;;;;25.95;13.93;;;-1.00;76.50;;;-2.64;63.89;97379.88;4933698;29;20427;-80
2022/03/04 01:57:29;;;;;;;23.98;12.35;;;-1.10;76.30;;;-2.73;63.85;97379.09;4933398;29;20407;-80
2022/03/04 01:59:55;;;;;;;24.90;14.13;;;-1.20;76.20;;;-2.63;64.23;97381.50;4933707;29;20422;-80
2022/03/04 02:02:20;;;;;;;24.90;14.43;;;-1.10;76.80;;;-2.61;64.74;97380.31;4933114;29;20496;-80
2022/03/04 02:04:49;;;;;;;26.55;15.38;;;-1.10;76.90;;;-2.55;64.80;97376.25;4933499;29;20407;-80
2022/03/04 02:07:17;;;;;;;27.40;15.75;;;-1.10;77.40;;;-2.65;64.90;97383.44;4933207;29;20470;-80
2022/03/04 02:09:43;;;;;;;27.15;14.90;;;-1.20;77.60;;;-2.59;65.13;97380.97;4933414;29;20989;-80
2022/03/04 02:12:09;;;;;;;24.20;14.10;;;-1.20;77.70;;;-2.75;64.84;97378.44;4933022;29;20415;-80
2022/03/04 02:14:35;;;;;;;26.23;14.15;;;-1.20;77.60;;;-2.77;64.69;97376.00;4933265;29;20505;-80
2022/03/04 02:17:03;;;;;;;24.35;13.18;;;-1.30;77.50;;;-2.85;65.08;97372.63;4933269;29;20415;-79
2022/03/04 02:19:29;;;;;;;24.75;13.93;;;-1.30;77.40;;;-2.85;64.83;97367.47;4933168;29;20505;-80
2022/03/04 02:22:00;;;;;;;24.05;13.43;;;-1.30;77.60;;;-2.84;65.27;97372.47;4931811;29;20889;-80
2022/03/04 02:24:28;;;;;;;27.05;14.93;;;-1.30;77.80;;;-2.72;65.38;97366.94;4933265;29;20411;-78
2022/03/04 02:26:58;;;;;;;27.05;14.73;;;-1.30;78.00;;;-2.69;65.21;97366.59;4932899;29;20443;-79
2022/03/04 02:29:25;;;;;;;29.38;15.68;;;-1.30;78.00;;;-2.74;65.23;97372.28;4932920;29;20408;-79
2022/03/04 02:31:52;;;;;;;29.05;15.80;;;-1.30;78.10;;;-2.74;65.19;97365.31;4932718;29;20436;-80
2022/03/04 02:34:19;;;;;;;25.80;14.18;;;-1.30;78.10;;;-2.86;65.10;97364.09;4932996;29;20508;-80
2022/03/04 02:36:46;;;;;;;24.92;13.00;;;-1.30;78.00;;;-2.94;65.21;97360.72;4932741;29;20407;-81
2022/03/04 02:39:14;;;;;;;27.70;14.65;;;-1.40;77.90;;;-2.94;65.48;97364.13;4933221;29;20770;-80
2022/03/04 02:41:40;;;;;;;23.23;12.82;;;-1.50;78.30;;;-3.06;65.65;97357.66;4932635;29;20439;-80
2022/03/04 02:44:08;;;;;;;26.07;13.43;;;-1.50;78.30;;;-3.06;65.39;97359.44;4933132;29;20451;-81
2022/03/04 02:46:35;;;;;;;24.23;14.52;;;-1.50;78.40;;;-2.95;65.35;97359.09;4947384;29;20871;-80
2022/03/04 02:49:02;;;;;;;29.65;15.50;;;-1.40;78.60;;;-2.98;65.80;97364.59;4933081;29;20412;-79
2022/03/04 02:51:28;;;;;;;27.38;14.35;;;-1.50;78.60;;;-3.01;65.60;97364.94;4932909;29;20431;-79
2022/03/04 02:53:54;;;;;;;22.83;12.75;;;-1.50;78.60;;;-3.15;65.73;97359.44;4934498;29;20489;-81
2022/03/04 02:56:22;;;;;;;24.57;13.87;;;-1.60;78.20;;;-3.09;65.82;97362.38;4936841;29;21010;-81
2022/03/04 02:58:48;;;;;;;24.45;13.60;;;-1.50;78.70;;;-3.15;65.37;97362.03;4936994;29;20418;-81
2022/03/04 03:01:14;;;;;;;26.55;14.77;;;-1.60;78.60;;;-3.15;65.77;97358.66;4937045;29;20411;-81
2022/03/04 03:03:40;;;;;;;24.77;14.40;;;-1.60;78.80;;;-3.16;66.31;97354.47;4936299;29;20422;-80
2022/03/04 03:06:06;;;;;;;29.13;15.18;;;-1.60;78.90;;;-3.09;66.56;97363.19;4936463;29;20413;-80
2022/03/04 03:08:32;;;;;;;25.70;14.13;;;-1.60;79.10;;;-3.22;66.17;97358.50;4951456;28;20415;-81
2022/03/04 03:10:58;;;;;;;28.17;14.37;;;-1.70;79.10;;;-3.26;66.07;97354.66;4936660;29;20411;-80
2022/03/04 03:13:26;;;;;;;25.38;13.90;;;-1.70;79.20;;;-3.25;66.37;97353.69;4936228;29;20412;-80
2022/03/04 03:15:52;;;;;;;23.67;12.90;;;-1.70;79.30;;;-3.35;66.50;97367.75;4936531;29;20427;-80
2022/03/04 03:18:18;;;;;;;29.58;14.98;;;-1.80;79.10;;;-3.23;66.10;97366.44;4936715;29;20528;-81
2022/03/04 03:20:44;;;;;;;27.65;14.65;;;-1.70;79.30;;;-3.28;66.18;97364.34;4935375;29;20897;-81
2022/03/04 03:23:11;;;;;;;28.35;15.23;;;-1.80;79.10;;;-3.25;66.47;97373.56;4936191;28;20864;-81
2022/03/04 03:25:37;;;;;;;24.08;13.68;;;-1.70;79.30;;;-3.35;66.33;97363.38;4936709;29;20411;-80
2022/03/04 03:28:04;;;;;;;26.90;14.52;;;-1.70;79.30;;;-3.33;66.58;97369.22;4951325;28;20418;-80
2022/03/04 03:30:31;;;;;;;28.02;13.90;;;-1.80;79.20;;;-3.44;66.29;97366.13;4938873;29;20414;-80
2022/03/04 03:32:58;;;;;;;25.83;14.87;;;-1.80;79.20;;;-3.33;66.41;97369.22;4939238;29;20479;-80
2022/03/04 03:35:24;;;;;;;28.13;15.00;;;-1.80;79.40;;;-3.34;66.27;97366.78;4940202;29;20524;-79
2022/03/04 03:37:50;;;;;;;25.10;14.77;;;-1.80;79.50;;;-3.37;66.42;97364.50;4942046;29;20415;-80
2022/03/04 03:40:16;;;;;;;20.15;12.15;;;-1.80;79.60;;;-3.53;66.71;97365.34;4941902;29;20415;-79
2022/03/04 03:42:42;;;;;;;24.65;13.38;;;-1.90;79.40;;;-3.52;66.28;97372.13;4936173;29;20422;-80
2022/03/04 03:45:10;;;;;;;25.00;13.48;;;-1.90;79.60;;;-3.60;66.76;97370.34;4951121;28;20419;-80
2022/03/04 03:47:39;;;;;;;23.50;13.43;;;-2.00;79.70;;;-3.57;66.96;97377.00;4935747;29;20801;-79
2022/03/04 03:50:06;;;;;;;22.55;13.60;;;-2.00;79.70;;;-3.51;67.02;97366.81;4950610;28;20490;-81
2022/03/04 03:52:32;;;;;;;23.17;13.18;;;-2.00;79.80;;;-3.65;66.98;97377.81;4950302;28;20422;-80
2022/03/04 03:54:58;;;;;;;23.40;13.18;;;-2.10;79.60;;;-3.67;66.84;97373.75;4935780;29;20438;-80
2022/03/04 03:57:25;;;;;;;22.73;12.57;;;-2.10;79.70;;;-3.72;66.73;97379.44;4935578;29;20404;-80
2022/03/04 03:59:51;;;;;;;26.30;14.57;;;-2.10;79.90;;;-3.60;66.81;97380.69;4935770;29;20415;-80
2022/03/04 04:02:17;;;;;;;26.90;13.52;;;-2.10;80.10;;;-3.69;66.93;97383.47;4935354;29;20418;-80
2022/03/04 04:04:46;;;;;;;27.63;15.68;;;-2.10;79.90;;;-3.53;67.26;97383.44;4934448;29;20431;-80
2022/03/04 04:07:12;;;;;;;26.45;13.60;;;-2.10;80.20;;;-3.70;67.00;97385.25;4996803;23;20418;-81
2022/03/04 04:09:39;;;;;;;32.08;16.50;;;-2.10;80.00;;;-3.59;66.96;97390.09;4997529;28;20912;-81
2022/03/04 04:12:06;;;;;;;31.02;16.00;;;-2.10;80.30;;;-3.53;67.13;97391.22;4992839;28;20394;-82
2022/03/04 04:14:33;;;;;;;26.65;14.35;;;-2.10;80.30;;;-3.67;67.03;97387.50;4993209;28;20457;-82
2022/03/04 04:16:58;;;;;;;28.08;16.02;;;-2.10;80.30;;;-3.57;67.09;97395.09;5007797;28;20408;-81
2022/03/04 04:19:25;;;;;;;25.73;15.13;;;-2.10;80.60;;;-3.63;67.35;97393.16;5012745;28;20979;-81
2022/03/04 04:21:52;;;;;;;26.25;15.00;;;-2.10;80.60;;;-3.62;67.02;97393.00;5012436;28;20755;-81
2022/03/04 04:24:19;;;;;;;28.67;15.43;;;-2.10;80.40;;;-3.58;67.29;97393.47;5012991;28;20416;-81
2022/03/04 04:26:45;;;;;;;25.15;14.52;;;-2.10;80.50;;;-3.69;67.15;97399.81;5011374;28;20408;-81
2022/03/04 04:29:14;;;;;;;26.65;15.10;;;-2.10;80.40;;;-3.59;67.34;97400.44;5012694;28;20396;-81
2022/03/04 04:31:40;;;;;;;23.65;13.57;;;-2.10;80.60;;;-3.79;67.34;97393.97;5012052;28;20407;-82
2022/03/04 04:34:07;;;;;;;31.50;15.43;;;-2.20;80.40;;;-3.76;67.56;97396.22;5012670;28;20408;-81
2022/03/04 04:36:33;;;;;;;26.67;14.00;;;-2.20;80.70;;;-3.82;67.63;97398.63;4994421;28;20920;-81
2022/03/04 04:39:02;;;;;;;30.92;15.90;;;-2.20;80.70;;;-3.66;67.30;97393.47;5012600;28;20471;-81
2022/03/04 04:41:28;;;;;;;27.98;15.45;;;-2.20;81.10;;;-3.74;67.60;97399.47;5012602;28;20492;-82
2022/03/04 04:43:56;;;;;;;25.07;14.97;;;-2.20;81.00;;;-3.84;67.65;97400.59;5012275;28;20401;-81
2022/03/04 04:46:22;;;;;;;27.85;14.70;;;-2.30;81.10;;;-3.81;67.78;97402.84;5012628;28;20890;-82
2022/03/04 04:48:48;;;;;;;28.67;15.10;;;-2.30;81.10;;;-3.86;67.85;97408.50;5012224;28;20492;-82
2022/03/04 04:51:14;;;;;;;29.15;15.25;;;-2.30;81.10;;;-3.81;67.73;97410.59;5012130;28;20413;-80
2022/03/04 04:53:40;;;;;;;33.00;16.52;;;-2.30;81.10;;;-3.73;67.57;97405.44;5011474;28;20407;-82
2022/03/04 04:56:07;;;;;;;25.50;14.65;;;-2.30;81.20;;;-3.91;67.64;97411.56;5011639;28;20417;-82
2022/03/04 04:58:33;;;;;;;28.45;15.60;;;-2.30;81.00;;;-3.91;67.54;97416.72;5011979;28;20404;-82
2022/03/04 05:00:59;;;;;;;28.10;14.75;;;-2.30;81.20;;;-3.92;67.97;97412.56;5011888;28;20416;-82
2022/03/04 05:03:27;;;;;;;29.23;15.70;;;-2.40;81.20;;;-3.93;67.84;97415.28;5011417;28;20467;-82
2022/03/04 05:05:54;;;;;;;26.67;15.02;;;-2.40;81.50;;;-4.02;68.23;97419.63;5011444;28;20484;-82
2022/03/04 05:08:21;;;;;;;30.98;16.52;;;-2.40;81.50;;;-3.96;67.91;97421.56;5011867;28;20488;-81
2022/03/04 05:10:47;;;;;;;25.57;14.93;;;-2.40;81.60;;;-4.04;68.15;97421.56;5011710;28;20443;-81
2022/03/04 05:13:15;;;;;;;26.42;14.07;;;-2.40;81.60;;;-4.07;68.00;97427.06;5011360;28;20400;-81
2022/03/04 05:15:41;;;;;;;28.25;15.00;;;-2.50;81.50;;;-4.07;68.04;97432.25;5011157;28;20526;-81
2022/03/04 05:18:08;;;;;;;28.27;15.23;;;-2.50;81.70;;;-3.99;68.55;97434.03;5011343;28;20882;-81
2022/03/04 05:20:34;;;;;;;29.83;16.53;;;-2.50;81.90;;;-3.96;68.25;97438.88;5011703;28;20412;-80
2022/03/04 05:23:00;;;;;;;29.33;16.80;;;-2.50;81.90;;;-3.95;68.56;97425.78;5011207;28;20906;-82
2022/03/04 05:25:26;;;;;;;30.33;16.50;;;-2.50;82.00;;;-3.88;68.76;97438.88;5010559;28;20778;-81
2022/03/04 05:27:52;;;;;;;31.60;15.93;;;-2.50;82.30;;;-4.02;68.56;97445.47;5011470;28;20413;-81
2022/03/04 05:30:19;;;;;;;29.55;16.13;;;-2.50;82.30;;;-4.05;68.60;97440.63;5011676;28;20417;-81
2022/03/04 05:32:45;;;;;;;27.10;15.63;;;-2.50;82.30;;;-4.07;68.45;97434.00;5010721;28;20405;-82
2022/03/04 05:35:11;;;;;;;31.88;16.08;;;-2.50;82.30;;;-3.98;68.54;97438.22;5011174;28;20479;-79
2022/03/04 05:37:37;;;;;;;27.55;15.00;;;-2.50;82.50;;;-4.15;68.67;97434.78;5010887;28;20439;-81
2022/03/04 05:40:05;;;;;;;26.27;14.20;;;-2.50;82.40;;;-4.16;68.81;97432.38;5011301;28;20401;-81
2022/03/04 05:42:31;;;;;;;29.70;16.02;;;-2.60;82.50;;;-4.01;68.96;97434.19;5009414;28;20440;-81
2022/03/04 05:44:57;;;;;;;32.05;16.67;;;-2.50;82.70;;;-4.06;68.71;97439.00;5009811;28;20401;-81
2022/03/04 05:47:24;;;;;;;35.10;17.50;;;-2.60;82.70;;;-4.00;68.81;97442.75;5010687;28;20407;-81
2022/03/04 05:49:51;;;;;;;33.80;16.80;;;-2.50;82.80;;;-4.01;69.06;97438.53;5011017;28;20405;-81
2022/03/04 05:52:16;;;;;;;28.65;15.95;;;-2.50;83.00;;;-4.08;69.14;97443.53;5010545;28;20408;-81
2022/03/04 05:54:43;;;;;;;29.92;16.15;;;-2.60;82.90;;;-4.15;69.19;97455.47;5009567;28;20421;-81
2022/03/04 05:57:09;;;;;;;24.75;13.93;;;-2.60;82.90;;;-4.23;69.15;97452.06;5010746;28;20411;-81
2022/03/04 05:59:35;;;;;;;24.80;14.47;;;-2.60;82.80;;;-4.26;68.91;97447.19;5010929;28;20774;-81
2022/03/04 06:02:00;;;;;;;33.70;17.00;;;-2.70;82.90;;;-4.18;69.42;97455.78;5010779;28;20417;-81
2022/03/04 06:04:28;;;;;;;31.95;15.75;;;-2.60;83.10;;;-4.15;69.38;97463.22;5010861;28;20408;-82
2022/03/04 06:06:54;;;;;;;27.13;15.70;;;-2.60;83.00;;;-4.19;69.08;97455.94;5010193;28;20416;-81
2022/03/04 06:09:21;;;;;;;25.97;14.90;;;-2.60;83.00;;;-4.22;69.29;97459.66;5010866;28;20498;-81
2022/03/04 06:11:47;;;;;;;29.30;15.47;;;-2.60;83.00;;;-4.18;69.16;97465.31;5010295;28;20480;-81
2022/03/04 06:14:13;;;;;;;33.53;15.10;;;-2.60;83.20;;;-4.24;69.60;97464.16;5010743;28;20898;-82
2022/03/04 06:16:39;;;;;;;30.80;15.30;;;-2.70;83.30;;;-4.24;69.46;97471.91;5010305;28;20894;-81
2022/03/04 06:19:05;;;;;;;31.23;16.15;;;-2.60;83.40;;;-4.20;69.42;97464.63;5010680;28;20405;-82
2022/03/04 06:21:32;;;;;;;31.02;16.52;;;-2.70;83.40;;;-4.09;69.89;97469.53;5010614;28;20411;-81
2022/03/04 06:23:58;;;;;;;33.58;17.67;;;-2.60;83.70;;;-4.01;69.71;97472.16;5010028;28;20484;-82
2022/03/04 06:26:24;;;;;;;30.70;16.67;;;-2.60;83.80;;;-4.02;69.56;97465.34;5009989;28;20826;-82
2022/03/04 06:28:50;;;;;;;35.00;17.50;;;-2.50;83.90;;;-3.97;69.63;97471.66;5009692;28;20484;-81
2022/03/04 06:31:16;;;;;;;31.88;16.23;;;-2.50;83.80;;;-3.98;69.46;97482.16;5010399;28;20503;-81
2022/03/04 06:33:42;;;;;;;35.20;17.40;;;-2.50;83.70;;;-3.95;69.66;97480.09;5010040;28;20400;-81
2022/03/04 06:36:11;;;;;;;31.52;17.63;;;-2.50;83.70;;;-3.98;69.58;97476.97;5009922;28;20417;-81
2022/03/04 06:38:43;;;;;;;31.65;17.08;;;-2.40;83.60;;;-3.92;69.61;97482.38;5010423;28;20427;-81
2022/03/04 06:41:10;;;;;;;28.85;16.02;;;-2.40;83.60;;;-3.93;69.38;97479.94;5010596;28;20435;-81
2022/03/04 06:43:36;;;;;;;31.15;16.73;;;-2.40;83.50;;;-3.81;69.28;97483.81;5009574;28;20393;-81
2022/03/04 06:46:03;;;;;;;28.67;16.37;;;-2.40;84.40;;;-3.77;69.57;97484.31;5010118;28;20760;-82
2022/03/04 06:48:29;;;;;;;30.07;16.43;;;-2.30;83.60;;;-3.74;69.07;97484.00;5010672;28;21024;-82
2022/03/04 06:50:55;;;;;;;33.20;17.48;;;-2.30;83.60;;;-3.64;69.20;97482.91;5010271;28;20404;-81
2022/03/04 06:53:22;;;;;;;32.78;16.92;;;-2.20;83.70;;;-3.68;69.17;97483.34;5010145;28;20439;-80
2022/03/04 06:55:49;;;;;;;29.48;17.02;;;-2.20;83.60;;;-3.60;69.25;97491.13;5010274;28;20425;-81
2022/03/04 06:58:16;;;;;;;35.03;18.67;;;-2.20;83.40;;;-3.52;68.77;97491.13;5008750;28;20904;-81
2022/03/04 07:00:42;;;;;;;36.00;17.63;;;-2.10;83.20;;;-3.46;69.10;97498.28;5010399;28;20453;-81
2022/03/04 07:03:08;;;;;;;33.88;17.35;;;-2.00;83.40;;;-3.44;69.09;97500.69;5009928;28;20405;-82
2022/03/04 07:05:35;;;;;;;28.93;15.97;;;-2.00;83.50;;;-3.47;69.21;97507.00;5009685;28;20467;-81
2022/03/04 07:08:02;;;;;;;23.23;13.13;;;-2.00;83.40;;;-3.43;68.84;97504.91;5013770;28;20415;-82
2022/03/04 07:10:28;;;;;;;32.05;17.58;;;-2.00;83.40;;;-3.28;68.41;97511.06;5010095;28;20405;-82
2022/03/04 07:12:56;;;;;;;33.45;18.35;;;-1.90;82.90;;;-3.20;68.61;97504.13;5025567;28;20434;-83
2022/03/04 07:15:22;;;;;;;28.17;16.08;;;-1.80;82.80;;;-3.18;68.32;97515.13;5013717;28;20425;-81
2022/03/04 07:17:48;;;;;;;31.75;17.23;;;-1.80;82.70;;;-3.04;67.86;97526.59;5023079;28;20411;-80
2022/03/04 07:20:14;;;;;;;27.60;15.52;;;-1.60;82.50;;;-2.99;67.83;97518.34;5010258;28;20464;-84
2022/03/04 07:22:42;;;;;;;26.80;14.48;;;-1.60;82.30;;;-2.91;67.79;97523.50;5016937;28;20444;-82
2022/03/04 07:25:11;;;;;;;21.95;12.52;;;-1.50;82.20;;;-2.83;67.70;97516.56;5010203;28;20467;-84
2022/03/04 07:27:38;;;;;;;28.92;16.70;;;-1.40;81.90;;;-2.67;67.18;97527.88;5010294;28;20416;-85
2022/03/04 07:30:09;;;;;;;26.20;14.70;;;-1.30;81.60;;;-2.61;67.42;97529.78;5011456;28;20403;-81
2022/03/04 07:32:35;;;;;;;34.67;18.58;;;-1.20;81.40;;;-2.50;66.32;97522.50;5010457;28;20913;-82
2022/03/04 07:35:02;;;;;;;26.98;15.60;;;-1.10;81.00;;;-2.42;66.81;97534.63;5010922;28;20420;-83
2022/03/04 07:37:29;;;;;;;28.05;15.25;;;-1.10;80.80;;;-2.33;66.60;97537.00;5011687;28;20409;-82
2022/03/04 07:39:55;;;;;;;27.13;14.60;;;-1.00;80.60;;;-2.24;66.08;97537.00;5023110;28;20432;-81
2022/03/04 07:42:22;;;;;;;24.75;13.23;;;-0.90;80.20;;;-2.16;65.90;97526.59;5031585;28;20408;-83
2022/03/04 07:44:48;;;;;;;24.02;13.30;;;-0.80;80.00;;;-2.08;65.60;97539.53;5017187;28;20405;-82
2022/03/04 07:47:15;;;;;;;28.23;14.80;;;-0.70;79.60;;;-2.02;65.22;97531.88;5031852;28;20400;-83
2022/03/04 07:49:42;;;;;;;21.50;12.63;;;-0.60;79.40;;;-1.94;65.54;97533.66;5026549;28;20470;-82
2022/03/04 07:52:08;;;;;;;22.55;13.00;;;-0.60;79.20;;;-1.86;65.24;97536.19;5013294;28;20413;-75
2022/03/04 07:54:34;;;;;;;21.07;12.73;;;-0.50;79.10;;;-1.78;64.79;97535.34;5012957;28;20439;-76
2022/03/04 07:57:00;;;;;;;21.38;12.38;;;-0.50;78.70;;;-1.72;64.77;97545.88;5012394;28;20413;-79
2022/03/04 07:59:26;;;;;;;21.23;12.60;;;-0.40;78.50;;;-1.64;64.25;97537.22;5012868;28;20409;-78
2022/03/04 08:01:52;;;;;;;20.17;11.73;;;-0.30;78.20;;;-1.57;64.54;97532.97;5012912;28;20902;-82
2022/03/04 08:04:19;;;;;;;22.83;13.32;;;-0.30;78.00;;;-1.50;64.34;97535.72;5013701;28;20539;-80
2022/03/04 08:06:45;;;;;;;21.65;13.02;;;-0.20;77.80;;;-1.44;64.08;97533.25;5012365;28;20484;-77
2022/03/04 08:09:11;;;;;;;23.95;13.23;;;-0.10;77.60;;;-1.37;63.68;97538.56;5013205;28;21146;-75
2022/03/04 08:11:37;;;;;;;23.30;13.10;;;0.00;77.50;;;-1.30;63.76;97542.06;5012459;28;20883;-83
2022/03/04 08:14:03;;;;;;;22.05;13.35;;;0.00;77.20;;;-1.24;63.66;97538.78;5012980;28;20401;-85
2022/03/04 08:16:29;;;;;;;23.08;13.48;;;0.10;77.10;;;-1.19;62.96;97544.25;5011735;28;20499;-80
2022/03/04 08:18:55;;;;;;;23.38;13.77;;;0.10;76.80;;;-1.12;63.22;97550.38;5010999;28;21020;-80
2022/03/04 08:21:23;;;;;;;24.08;13.00;;;0.10;76.60;;;-1.06;62.91;97546.28;5012893;28;20400;-81
2022/03/04 08:23:49;;;;;;;21.15;12.90;;;0.20;76.50;;;-1.00;62.80;97543.81;5012818;28;20528;-81
2022/03/04 08:26:15;;;;;;;24.00;13.70;;;0.30;76.40;;;-0.94;62.85;97540.50;5014330;28;20426;-81
2022/03/04 08:28:41;;;;;;;24.33;13.20;;;0.40;77.00;;;-0.88;62.40;97545.00;5012971;28;20946;-80
2022/03/04 08:31:13;;;;;;;21.75;12.45;;;0.40;76.10;;;-0.80;62.36;97544.13;5014370;28;20483;-86
2022/03/04 08:33:41;;;;;;;24.52;13.98;;;0.50;75.90;;;-0.73;62.48;97547.63;5013578;28;20434;-82
2022/03/04 08:36:07;;;;;;;25.35;14.32;;;0.50;75.80;;;-0.66;62.06;97540.75;5018166;28;20846;-83
2022/03/04 08:38:34;;;;;;;23.67;13.77;;;0.60;75.50;;;-0.60;62.07;97544.44;4999477;28;20487;-82
2022/03/04 08:41:00;;;;;;;21.52;12.85;;;0.60;75.30;;;-0.54;61.91;97541.94;5011473;28;20405;-81
2022/03/04 08:43:26;;;;;;;26.03;14.67;;;0.70;75.00;;;-0.47;61.50;97540.25;5025831;28;20917;-84
2022/03/04 08:45:53;;;;;;;22.38;13.82;;;0.80;74.80;;;-0.40;61.30;97542.94;5016596;28;20779;-86
2022/03/04 08:48:19;;;;;;;24.38;14.32;;;0.80;74.60;;;-0.33;61.35;97546.44;5013090;28;20397;-87
2022/03/04 08:50:45;;;;;;;24.55;13.80;;;0.90;74.40;;;-0.27;61.00;97540.53;5012500;28;20782;-87
2022/03/04 08:53:11;;;;;;;25.10;13.80;;;0.90;74.30;;;-0.21;61.17;97547.63;5011937;28;20397;-89
2022/03/04 08:55:41;;;;;;;26.52;14.85;;;1.00;74.10;;;-0.13;60.91;97549.31;5016841;28;20417;-87
2022/03/04 08:58:07;;;;;;;26.45;14.93;;;1.10;74.00;;;-0.06;60.55;97555.41;4998327;28;20496;-88
2022/03/04 09:00:33;;;;;;;28.58;15.45;;;1.10;73.80;;;0.00;60.34;97558.09;5016151;28;20416;-89
2022/03/04 09:02:59;;;;;;;28.30;16.85;;;1.20;73.50;;;0.09;60.36;97556.22;5012931;28;20486;-88
2022/03/04 09:05:25;;;;;;;24.00;14.40;;;1.30;73.30;;;0.19;59.75;97548.94;5015696;28;20392;-88
2022/03/04 09:07:51;;;;;;;28.85;15.65;;;1.40;73.00;;;0.26;59.34;97557.66;5028910;28;20428;-89
2022/03/04 09:10:17;;;;;;;29.63;16.60;;;1.50;72.50;;;0.33;59.31;97549.91;5020549;28;20416;-87
2022/03/04 09:12:44;;;;;;;32.97;18.50;;;1.50;72.10;;;0.37;58.46;97552.00;5021307;28;20423;-88
2022/03/04 09:15:13;;;;;;;36.42;19.42;;;1.60;71.00;;;0.46;58.40;97549.25;5017146;28;20424;-87
2022/03/04 09:17:40;;;;;;;30.58;16.30;;;1.70;70.60;;;0.54;57.82;97551.75;5014974;28;20420;-81
2022/03/04 09:20:07;;;;;;;30.90;16.37;;;1.70;70.30;;;0.61;57.76;97556.03;5010991;28;20408;-80
2022/03/04 09:22:33;;;;;;;33.30;16.87;;;1.80;70.10;;;0.67;57.16;97544.91;5011175;28;20417;-75
2022/03/04 09:24:59;;;;;;;28.67;16.05;;;1.80;69.50;;;0.74;57.17;97542.38;5012685;28;20404;-87
2022/03/04 09:27:25;;;;;;;31.15;16.67;;;1.90;69.30;;;0.82;57.30;97539.66;4992488;28;20417;-76
2022/03/04 09:29:52;;;;;;;31.95;17.67;;;2.00;69.20;;;0.90;56.63;97547.34;5009240;28;20413;-86
2022/03/04 09:32:18;;;;;;;28.25;15.60;;;2.10;69.00;;;1.00;56.43;97550.44;5009435;28;20409;-86
2022/03/04 09:34:44;;;;;;;25.10;14.02;;;2.10;68.70;;;1.08;56.10;97546.91;5006238;28;20419;-87
2022/03/04 09:37:11;;;;;;;28.73;16.70;;;2.20;68.50;;;1.15;55.67;97552.97;5008482;28;20421;-86
2022/03/04 09:39:37;;;;;;;29.35;16.23;;;2.30;67.60;;;1.22;55.57;97550.41;5009681;28;20405;-87
2022/03/04 09:42:03;;;;;;;30.48;16.45;;;2.30;67.20;;;1.29;55.03;97562.50;5010224;28;20945;-86
2022/03/04 09:44:29;;;;;;;34.05;18.08;;;2.40;66.70;;;1.38;54.09;97557.97;5011722;28;20458;-81
2022/03/04 09:46:58;;;;;;;31.40;17.35;;;2.50;65.30;;;1.46;54.06;97556.03;5011212;28;20415;-83
2022/03/04 09:49:31;;;;;;;27.50;16.13;;;2.60;65.20;;;1.57;53.85;97551.31;5011233;28;20401;-83
2022/03/04 09:51:57;;;;;;;27.30;16.42;;;2.70;65.20;;;1.66;53.89;97563.19;5010943;28;20450;-83
2022/03/04 09:54:27;;;;;;;29.85;16.42;;;2.80;65.20;;;1.77;53.81;97557.47;5005588;28;20886;-80
2022/03/04 09:56:53;;;;;;;38.25;19.10;;;2.80;65.20;;;1.83;50.87;97554.09;5006789;28;20924;-81
2022/03/04 09:59:20;;;;;;;40.88;19.67;;;3.00;61.40;;;1.95;49.60;97550.75;5012436;28;20832;-81
2022/03/04 10:01:47;;;;;;;29.25;17.05;;;3.10;59.30;;;2.10;50.63;97555.88;5000967;28;20434;-82
2022/03/04 10:04:14;;;;;;;30.05;15.93;;;3.20;60.70;;;2.37;50.41;97555.97;5000031;28;20407;-83